sensor_id;sensor_type;location;lat;lon;timestamp;temperature;humidity
3288;DHT22;3260;52.438;13.502;2022-11-20T05:00:50;0.90;1.00
3288;DHT22;3260;52.438;13.502;2022-11-20T05:03:18;0.90;1.00
3288;DHT22;3260;52.438;13.502;2022-11-20T05:05:46;0.90;1.00
3288;DHT22;3260;52.438;13.502;2022-11-20T05:08:15;0.90;1.00
3288;DHT22;3260;52.438;13.502;2022-11-20T05:10:43;1.00;1.00
3288;DHT22;3260;52.438;13.502;2022-11-20T05:13:11;1.00;1.00
3288;DHT22;3260;52.438;13.502;2022-11-20T05:15:39;1.00;1.00
3288;DHT22;3260;52.438;13.502;2022-11-20T05:18:09;1.00;1.00
3288;DHT22;3260;52.438;13.502;2022-11-20T05:20:37;0.90;1.00
3288;DHT22;3260;52.438;13.502;2022-11-20T05:23:05;1.00;1.00
3288;DHT22;3260;52.438;13.502;2022-11-20T05:25:33;1.00;1.00
3288;DHT22;3260;52.438;13.502;2022-11-20T05:28:02;1.00;1.00
3288;DHT22;3260;52.438;13.502;2022-11-20T05:30:30;1.00;1.00
3288;DHT22;3260;52.438;13.502;2022-11-20T05:32:58;1.10;1.00
3288;DHT22;3260;52.438;13.502;2022-11-20T05:35:28;1.10;1.00
3288;DHT22;3260;52.438;13.502;2022-11-20T05:37:56;1.10;1.00
3288;DHT22;3260;52.438;13.502;2022-11-20T05:40:24;1.10;1.00
3288;DHT22;3260;52.438;13.502;2022-11-20T05:42:52;1.10;1.00
3288;DHT22;3260;52.438;13.502;2022-11-20T05:45:21;1.10;1.00
3288;DHT22;3260;52.438;13.502;2022-11-20T05:47:50;1.10;1.00
3288;DHT22;3260;52.438;13.502;2022-11-20T05:50:18;1.20;1.00
3288;DHT22;3260;52.438;13.502;2022-11-20T05:52:48;1.20;1.00
3288;DHT22;3260;52.438;13.502;2022-11-20T05:55:16;1.30;1.00
3288;DHT22;3260;52.438;13.502;2022-11-20T05:57:44;1.30;1.00
3288;DHT22;3260;52.438;13.502;2022-11-20T06:00:13;1.30;1.00
3288;DHT22;3260;52.438;13.502;2022-11-20T06:02:42;1.30;1.00
3288;DHT22;3260;52.438;13.502;2022-11-20T06:05:11;1.30;1.00
3288;DHT22;3260;52.438;13.502;2022-11-20T06:07:40;1.20;1.00
3288;DHT22;3260;52.438;13.502;2022-11-20T06:10:11;1.20;1.00
3288;DHT22;3260;52.438;13.502;2022-11-20T06:12:39;1.20;1.00
3288;DHT22;3260;52.438;13.502;2022-11-20T06:15:08;1.20;1.00
3288;DHT22;3260;52.438;13.502;2022-11-20T06:17:37;1.20;1.00
3288;DHT22;3260;52.438;13.502;2022-11-20T06:20:06;1.20;1.00
3288;DHT22;3260;52.438;13.502;2022-11-20T06:22:35;1.20;1.00
3288;DHT22;3260;52.438;13.502;2022-11-20T06:25:04;1.30;1.00
3288;DHT22;3260;52.438;13.502;2022-11-20T06:27:33;1.30;1.00
3288;DHT22;3260;52.438;13.502;2022-11-20T06:30:02;1.30;1.00
3288;DHT22;3260;52.438;13.502;2022-11-20T06:32:30;1.30;1.00
3288;DHT22;3260;52.438;13.502;2022-11-20T06:34:59;1.30;1.00
3288;DHT22;3260;52.438;13.502;2022-11-20T06:37:27;1.30;1.00
3288;DHT22;3260;52.438;13.502;2022-11-20T06:39:55;1.20;1.00
3288;DHT22;3260;52.438;13.502;2022-11-20T06:42:23;1.20;1.00
3288;DHT22;3260;52.438;13.502;2022-11-20T06:44:53;1.20;1.00
3288;DHT22;3260;52.438;13.502;2022-11-20T06:47:21;1.20;1.00
3288;DHT22;3260;52.438;13.502;2022-11-20T06:49:50;1.10;1.00
3288;DHT22;3260;52.438;13.502;2022-11-20T06:52:18;1.20;1.00
3288;DHT22;3260;52.438;13.502;2022-11-20T06:54:46;1.10;1.00
3288;DHT22;3260;52.438;13.502;2022-11-20T06:57:14;1.20;1.00
3288;DHT22;3260;52.438;13.502;2022-11-20T06:59:42;1.20;1.00
3288;DHT22;3260;52.438;13.502;2022-11-20T07:02:12;1.20;1.00
3288;DHT22;3260;52.438;13.502;2022-11-20T07:04:40;1.20;1.00
3288;DHT22;3260;52.438;13.502;2022-11-20T07:07:08;1.10;1.00
3288;DHT22;3260;52.438;13.502;2022-11-20T07:09:37;1.10;1.00
3288;DHT22;3260;52.438;13.502;2022-11-20T07:12:05;1.00;1.00
3288;DHT22;3260;52.438;13.502;2022-11-20T07:14:34;0.90;1.00
3288;DHT22;3260;52.438;13.502;2022-11-20T07:17:02;0.90;1.00
3288;DHT22;3260;52.438;13.502;2022-11-20T07:19:31;0.90;1.00
3288;DHT22;3260;52.438;13.502;2022-11-20T07:21:59;0.90;1.00
3288;DHT22;3260;52.438;13.502;2022-11-20T07:24:28;0.90;1.00
3288;DHT22;3260;52.438;13.502;2022-11-20T07:26:56;1.00;1.00
3288;DHT22;3260;52.438;13.502;2022-11-20T07:29:24;1.00;1.00
3288;DHT22;3260;52.438;13.502;2022-11-20T07:31:53;0.90;1.00
3288;DHT22;3260;52.438;13.502;2022-11-20T07:34:22;0.90;1.00
3288;DHT22;3260;52.438;13.502;2022-11-20T07:36:51;0.90;1.00
3288;DHT22;3260;52.438;13.502;2022-11-20T07:39:20;0.90;1.00
3288;DHT22;3260;52.438;13.502;2022-11-20T07:41:48;0.80;1.00
3288;DHT22;3260;52.438;13.502;2022-11-20T07:44:16;0.80;1.00
3288;DHT22;3260;52.438;13.502;2022-11-20T07:46:45;0.80;1.00
3288;DHT22;3260;52.438;13.502;2022-11-20T07:49:13;0.80;1.00
3288;DHT22;3260;52.438;13.502;2022-11-20T07:51:41;0.80;1.00
3288;DHT22;3260;52.438;13.502;2022-11-20T07:54:11;0.90;1.00
3288;DHT22;3260;52.438;13.502;2022-11-20T07:56:39;0.90;1.00
3288;DHT22;3260;52.438;13.502;2022-11-20T07:59:07;1.00;1.00
3288;DHT22;3260;52.438;13.502;2022-11-20T08:01:35;1.10;1.00
3288;DHT22;3260;52.438;13.502;2022-11-20T08:04:04;1.20;1.00
3288;DHT22;3260;52.438;13.502;2022-11-20T08:06:32;1.20;1.00
3288;DHT22;3260;52.438;13.502;2022-11-20T08:09:00;1.30;1.00
3288;DHT22;3260;52.438;13.502;2022-11-20T08:11:30;1.40;1.00
3288;DHT22;3260;52.438;13.502;2022-11-20T08:14:15;1.40;1.00
3288;DHT22;3260;52.438;13.502;2022-11-20T08:16:46;1.40;1.00
3288;DHT22;3260;52.438;13.502;2022-11-20T08:19:17;1.50;1.00
3288;DHT22;3260;52.438;13.502;2022-11-20T08:21:47;1.50;1.00
3288;DHT22;3260;52.438;13.502;2022-11-20T08:24:15;1.50;1.00
3288;DHT22;3260;52.438;13.502;2022-11-20T08:26:44;1.50;1.00
3288;DHT22;3260;52.438;13.502;2022-11-20T08:29:13;1.50;1.00
3288;DHT22;3260;52.438;13.502;2022-11-20T08:31:41;1.60;1.00
3288;DHT22;3260;52.438;13.502;2022-11-20T08:34:09;1.60;1.00
3288;DHT22;3260;52.438;13.502;2022-11-20T08:36:44;1.70;1.00
3288;DHT22;3260;52.438;13.502;2022-11-20T08:39:13;1.70;1.00
3288;DHT22;3260;52.438;13.502;2022-11-20T08:41:41;1.70;1.00
3288;DHT22;3260;52.438;13.502;2022-11-20T08:44:10;1.70;1.00
3288;DHT22;3260;52.438;13.502;2022-11-20T08:46:40;1.70;1.00
3288;DHT22;3260;52.438;13.502;2022-11-20T08:49:11;1.70;1.00
3288;DHT22;3260;52.438;13.502;2022-11-20T08:51:40;1.70;1.00
3288;DHT22;3260;52.438;13.502;2022-11-20T08:54:09;1.60;1.00
3288;DHT22;3260;52.438;13.502;2022-11-20T08:56:37;1.60;1.00
3288;DHT22;3260;52.438;13.502;2022-11-20T08:59:05;1.60;1.00
3288;DHT22;3260;52.438;13.502;2022-11-20T09:01:55;1.50;1.00
3288;DHT22;3260;52.438;13.502;2022-11-20T09:04:23;1.50;1.00
3288;DHT22;3260;52.438;13.502;2022-11-20T09:06:51;1.50;1.00
3288;DHT22;3260;52.438;13.502;2022-11-20T09:09:20;1.60;1.00
3288;DHT22;3260;52.438;13.502;2022-11-20T09:11:48;1.60;1.00
3288;DHT22;3260;52.438;13.502;2022-11-20T09:14:17;1.60;1.00
3288;DHT22;3260;52.438;13.502;2022-11-20T09:16:45;1.40;1.00
3288;DHT22;3260;52.438;13.502;2022-11-20T09:19:15;1.30;1.00
3288;DHT22;3260;52.438;13.502;2022-11-20T09:22:01;1.30;1.00
3288;DHT22;3260;52.438;13.502;2022-11-20T09:24:29;1.30;1.00
3288;DHT22;3260;52.438;13.502;2022-11-20T09:26:57;1.30;1.00
3288;DHT22;3260;52.438;13.502;2022-11-20T09:29:26;1.30;1.00
3288;DHT22;3260;52.438;13.502;2022-11-20T09:31:54;1.20;1.00
3288;DHT22;3260;52.438;13.502;2022-11-20T09:34:24;1.10;1.00
3288;DHT22;3260;52.438;13.502;2022-11-20T09:36:52;1.20;1.00
3288;DHT22;3260;52.438;13.502;2022-11-20T09:39:21;1.20;1.00
3288;DHT22;3260;52.438;13.502;2022-11-20T09:42:01;1.10;1.00
3288;DHT22;3260;52.438;13.502;2022-11-20T09:44:50;1.10;1.00
3288;DHT22;3260;52.438;13.502;2022-11-20T09:47:52;1.00;1.00
3288;DHT22;3260;52.438;13.502;2022-11-20T09:50:33;1.00;1.00
3288;DHT22;3260;52.438;13.502;2022-11-20T09:53:13;1.10;1.00
3288;DHT22;3260;52.438;13.502;2022-11-20T09:55:48;1.10;1.00
3288;DHT22;3260;52.438;13.502;2022-11-20T09:58:24;1.10;1.00
3288;DHT22;3260;52.438;13.502;2022-11-20T10:01:09;1.10;1.00
3288;DHT22;3260;52.438;13.502;2022-11-20T10:03:49;1.10;1.00
3288;DHT22;3260;52.438;13.502;2022-11-20T10:06:30;1.20;1.00
3288;DHT22;3260;52.438;13.502;2022-11-20T10:09:06;1.30;1.00
3288;DHT22;3260;52.438;13.502;2022-11-20T10:11:54;1.20;1.00
3288;DHT22;3260;52.438;13.502;2022-11-20T10:14:35;1.30;1.00
3288;DHT22;3260;52.438;13.502;2022-11-20T10:17:22;1.40;1.00
3288;DHT22;3260;52.438;13.502;2022-11-20T10:20:10;1.30;1.00
3288;DHT22;3260;52.438;13.502;2022-11-20T10:22:57;1.30;1.00
3288;DHT22;3260;52.438;13.502;2022-11-20T10:25:39;1.30;1.00
3288;DHT22;3260;52.438;13.502;2022-11-20T10:28:21;1.40;1.00
3288;DHT22;3260;52.438;13.502;2022-11-20T10:31:02;1.50;1.00
3288;DHT22;3260;52.438;13.502;2022-11-20T10:33:38;1.50;1.00
3288;DHT22;3260;52.438;13.502;2022-11-20T10:36:33;1.50;1.00
3288;DHT22;3260;52.438;13.502;2022-11-20T10:39:10;1.50;1.00
3288;DHT22;3260;52.438;13.502;2022-11-20T10:41:46;1.60;1.00
3288;DHT22;3260;52.438;13.502;2022-11-20T10:44:21;1.60;1.00
3288;DHT22;3260;52.438;13.502;2022-11-20T10:47:13;1.60;1.00
3288;DHT22;3260;52.438;13.502;2022-11-20T10:49:46;1.50;1.00
3288;DHT22;3260;52.438;13.502;2022-11-20T10:52:25;1.60;1.00
3288;DHT22;3260;52.438;13.502;2022-11-20T10:55:10;1.70;1.00
3288;DHT22;3260;52.438;13.502;2022-11-20T10:57:52;1.80;1.00
3288;DHT22;3260;52.438;13.502;2022-11-20T11:00:25;1.90;1.00
3288;DHT22;3260;52.438;13.502;2022-11-20T11:02:54;2.00;1.00
3288;DHT22;3260;52.438;13.502;2022-11-20T11:05:34;2.00;1.00
3288;DHT22;3260;52.438;13.502;2022-11-20T11:08:12;2.20;1.00
3288;DHT22;3260;52.438;13.502;2022-11-20T11:10:49;2.20;1.00
3288;DHT22;3260;52.438;13.502;2022-11-20T11:13:21;2.20;1.00
3288;DHT22;3260;52.438;13.502;2022-11-20T11:15:51;2.10;1.00
3288;DHT22;3260;52.438;13.502;2022-11-20T11:18:24;2.10;1.00
3288;DHT22;3260;52.438;13.502;2022-11-20T11:20:54;2.10;1.00
3288;DHT22;3260;52.438;13.502;2022-11-20T11:23:31;2.00;1.00
3288;DHT22;3260;52.438;13.502;2022-11-20T11:26:04;2.10;1.00
3288;DHT22;3260;52.438;13.502;2022-11-20T11:28:33;2.10;1.00
3288;DHT22;3260;52.438;13.502;2022-11-20T11:31:02;2.10;1.00
3288;DHT22;3260;52.438;13.502;2022-11-20T11:33:32;2.10;1.00
3288;DHT22;3260;52.438;13.502;2022-11-20T11:36:02;2.10;1.00
3288;DHT22;3260;52.438;13.502;2022-11-20T11:38:35;2.30;1.00
3288;DHT22;3260;52.438;13.502;2022-11-20T11:41:11;2.50;1.00
3288;DHT22;3260;52.438;13.502;2022-11-20T11:43:51;2.70;1.00
3288;DHT22;3260;52.438;13.502;2022-11-20T11:46:40;2.90;1.00
3288;DHT22;3260;52.438;13.502;2022-11-20T11:49:16;3.20;1.00
3288;DHT22;3260;52.438;13.502;2022-11-20T11:51:58;3.40;1.00
3288;DHT22;3260;52.438;13.502;2022-11-20T11:54:36;3.50;1.00
3288;DHT22;3260;52.438;13.502;2022-11-20T11:57:15;3.60;1.00
3288;DHT22;3260;52.438;13.502;2022-11-20T12:00:00;3.70;1.00
3288;DHT22;3260;52.438;13.502;2022-11-20T12:02:37;3.70;1.00
3288;DHT22;3260;52.438;13.502;2022-11-20T12:05:18;3.80;1.00
3288;DHT22;3260;52.438;13.502;2022-11-20T12:07:55;3.80;1.00
3288;DHT22;3260;52.438;13.502;2022-11-20T12:10:40;4.00;1.00
3288;DHT22;3260;52.438;13.502;2022-11-20T12:13:30;4.10;1.00
3288;DHT22;3260;52.438;13.502;2022-11-20T12:16:10;4.10;1.00
3288;DHT22;3260;52.438;13.502;2022-11-20T12:18:41;4.10;1.00
3288;DHT22;3260;52.438;13.502;2022-11-20T12:21:19;4.20;1.00
3288;DHT22;3260;52.438;13.502;2022-11-20T12:24:04;4.20;1.00
3288;DHT22;3260;52.438;13.502;2022-11-20T12:26:54;4.10;1.00
3288;DHT22;3260;52.438;13.502;2022-11-20T12:29:43;4.20;1.00
3288;DHT22;3260;52.438;13.502;2022-11-20T12:32:38;4.40;1.00
3288;DHT22;3260;52.438;13.502;2022-11-20T12:35:42;4.80;1.00
3288;DHT22;3260;52.438;13.502;2022-11-20T12:38:41;5.30;1.00
3288;DHT22;3260;52.438;13.502;2022-11-20T12:41:25;5.50;1.00
3288;DHT22;3260;52.438;13.502;2022-11-20T12:44:51;5.70;1.00
3288;DHT22;3260;52.438;13.502;2022-11-20T12:48:02;5.60;1.00
3288;DHT22;3260;52.438;13.502;2022-11-20T12:50:44;5.40;1.00
3288;DHT22;3260;52.438;13.502;2022-11-20T12:53:44;5.20;1.00
3288;DHT22;3260;52.438;13.502;2022-11-20T12:56:31;4.90;1.00
3288;DHT22;3260;52.438;13.502;2022-11-20T12:59:19;4.60;1.00
3288;DHT22;3260;52.438;13.502;2022-11-20T13:02:13;4.40;1.00
3288;DHT22;3260;52.438;13.502;2022-11-20T13:05:05;4.20;1.00
3288;DHT22;3260;52.438;13.502;2022-11-20T13:07:43;4.10;1.00
3288;DHT22;3260;52.438;13.502;2022-11-20T13:10:18;3.80;1.00
3288;DHT22;3260;52.438;13.502;2022-11-20T13:12:56;3.60;1.00
3288;DHT22;3260;52.438;13.502;2022-11-20T13:15:39;3.50;1.00
3288;DHT22;3260;52.438;13.502;2022-11-20T13:18:17;3.40;1.00
3288;DHT22;3260;52.438;13.502;2022-11-20T13:20:46;3.40;1.00
3288;DHT22;3260;52.438;13.502;2022-11-20T13:23:26;3.40;1.00
3288;DHT22;3260;52.438;13.502;2022-11-20T13:26:06;3.20;1.00
3288;DHT22;3260;52.438;13.502;2022-11-20T13:28:43;3.10;1.00
3288;DHT22;3260;52.438;13.502;2022-11-20T13:31:30;3.00;1.00
3288;DHT22;3260;52.438;13.502;2022-11-20T13:34:03;2.90;1.00
3288;DHT22;3260;52.438;13.502;2022-11-20T13:36:33;2.90;1.00
3288;DHT22;3260;52.438;13.502;2022-11-20T13:39:03;2.90;1.00
3288;DHT22;3260;52.438;13.502;2022-11-20T13:41:33;3.00;1.00
3288;DHT22;3260;52.438;13.502;2022-11-20T13:44:13;3.10;1.00
3288;DHT22;3260;52.438;13.502;2022-11-20T13:46:49;3.10;1.00
3288;DHT22;3260;52.438;13.502;2022-11-20T13:49:25;2.90;1.00
3288;DHT22;3260;52.438;13.502;2022-11-20T13:52:04;2.90;1.00
3288;DHT22;3260;52.438;13.502;2022-11-20T13:55:10;2.70;1.00
3288;DHT22;3260;52.438;13.502;2022-11-20T13:58:07;2.60;1.00
3288;DHT22;3260;52.438;13.502;2022-11-20T14:01:00;2.60;1.00
3288;DHT22;3260;52.438;13.502;2022-11-20T14:03:38;2.60;1.00
3288;DHT22;3260;52.438;13.502;2022-11-20T14:06:29;2.60;1.00
3288;DHT22;3260;52.438;13.502;2022-11-20T14:08:59;2.60;1.00
3288;DHT22;3260;52.438;13.502;2022-11-20T14:11:29;2.70;1.00
3288;DHT22;3260;52.438;13.502;2022-11-20T14:14:00;2.70;1.00
3288;DHT22;3260;52.438;13.502;2022-11-20T14:16:33;2.60;1.00
3288;DHT22;3260;52.438;13.502;2022-11-20T14:19:25;2.60;1.00
3288;DHT22;3260;52.438;13.502;2022-11-20T14:22:15;2.60;1.00
3288;DHT22;3260;52.438;13.502;2022-11-20T14:24:47;2.60;1.00
3288;DHT22;3260;52.438;13.502;2022-11-20T14:27:18;2.50;1.00
3288;DHT22;3260;52.438;13.502;2022-11-20T14:29:49;2.50;1.00
3288;DHT22;3260;52.438;13.502;2022-11-20T14:32:20;2.50;1.00
3288;DHT22;3260;52.438;13.502;2022-11-20T14:34:51;2.40;1.00
3288;DHT22;3260;52.438;13.502;2022-11-20T14:37:24;2.50;1.00
3288;DHT22;3260;52.438;13.502;2022-11-20T14:39:56;2.40;1.00
3288;DHT22;3260;52.438;13.502;2022-11-20T14:42:27;2.40;1.00
3288;DHT22;3260;52.438;13.502;2022-11-20T14:44:58;2.40;1.00
3288;DHT22;3260;52.438;13.502;2022-11-20T14:47:30;2.50;1.00
3288;DHT22;3260;52.438;13.502;2022-11-20T14:50:00;2.40;1.00
3288;DHT22;3260;52.438;13.502;2022-11-20T14:52:37;2.50;1.00
3288;DHT22;3260;52.438;13.502;2022-11-20T14:55:07;2.50;1.00
3288;DHT22;3260;52.438;13.502;2022-11-20T14:57:36;2.50;1.00
3288;DHT22;3260;52.438;13.502;2022-11-20T15:00:08;2.40;1.00
3288;DHT22;3260;52.438;13.502;2022-11-20T15:02:48;2.40;1.00
3288;DHT22;3260;52.438;13.502;2022-11-20T15:05:19;2.30;1.00
3288;DHT22;3260;52.438;13.502;2022-11-20T15:07:52;2.30;1.00
3288;DHT22;3260;52.438;13.502;2022-11-20T15:10:32;2.10;1.00
3288;DHT22;3260;52.438;13.502;2022-11-20T15:13:03;2.10;1.00
3288;DHT22;3260;52.438;13.502;2022-11-20T15:15:44;2.20;1.00
3288;DHT22;3260;52.438;13.502;2022-11-20T15:18:16;2.20;1.00
3288;DHT22;3260;52.438;13.502;2022-11-20T15:20:47;2.20;1.00
3288;DHT22;3260;52.438;13.502;2022-11-20T15:23:18;2.20;1.00
3288;DHT22;3260;52.438;13.502;2022-11-20T15:25:48;2.20;1.00
3288;DHT22;3260;52.438;13.502;2022-11-20T15:28:19;2.20;1.00
3288;DHT22;3260;52.438;13.502;2022-11-20T15:30:49;2.20;1.00
3288;DHT22;3260;52.438;13.502;2022-11-20T15:33:18;2.20;1.00
3288;DHT22;3260;52.438;13.502;2022-11-20T15:35:46;2.20;1.00
3288;DHT22;3260;52.438;13.502;2022-11-20T15:38:14;2.20;1.00
3288;DHT22;3260;52.438;13.502;2022-11-20T15:40:44;2.30;1.00
3288;DHT22;3260;52.438;13.502;2022-11-20T15:43:12;2.30;1.00
3288;DHT22;3260;52.438;13.502;2022-11-20T15:45:42;2.30;1.00
3288;DHT22;3260;52.438;13.502;2022-11-20T15:48:14;2.30;1.00
3288;DHT22;3260;52.438;13.502;2022-11-20T15:50:52;2.30;1.00
3288;DHT22;3260;52.438;13.502;2022-11-20T15:53:24;2.20;1.00
3288;DHT22;3260;52.438;13.502;2022-11-20T15:55:54;2.30;1.00
3288;DHT22;3260;52.438;13.502;2022-11-20T15:58:22;2.40;1.00
3288;DHT22;3260;52.438;13.502;2022-11-20T16:00:51;2.40;1.00
3288;DHT22;3260;52.438;13.502;2022-11-20T16:03:19;2.40;1.00
3288;DHT22;3260;52.438;13.502;2022-11-20T16:05:48;2.40;1.00
3288;DHT22;3260;52.438;13.502;2022-11-20T16:08:16;2.50;1.00
3288;DHT22;3260;52.438;13.502;2022-11-20T16:10:44;2.50;1.00
3288;DHT22;3260;52.438;13.502;2022-11-20T16:13:15;2.50;1.00
3288;DHT22;3260;52.438;13.502;2022-11-20T16:16:04;2.50;1.00
3288;DHT22;3260;52.438;13.502;2022-11-20T16:18:35;2.40;1.00
3288;DHT22;3260;52.438;13.502;2022-11-20T16:21:03;2.40;1.00
3288;DHT22;3260;52.438;13.502;2022-11-20T16:23:32;2.40;1.00
3288;DHT22;3260;52.438;13.502;2022-11-20T16:26:09;2.40;1.00
3288;DHT22;3260;52.438;13.502;2022-11-20T16:28:39;2.30;1.00
3288;DHT22;3260;52.438;13.502;2022-11-20T16:31:10;2.30;1.00
3288;DHT22;3260;52.438;13.502;2022-11-20T16:33:39;2.10;1.00
3288;DHT22;3260;52.438;13.502;2022-11-20T16:36:09;2.00;1.00
3288;DHT22;3260;52.438;13.502;2022-11-20T16:38:38;1.90;1.00
3288;DHT22;3260;52.438;13.502;2022-11-20T16:41:08;1.80;1.00
3288;DHT22;3260;52.438;13.502;2022-11-20T16:43:46;1.70;1.00
3288;DHT22;3260;52.438;13.502;2022-11-20T16:46:16;1.60;1.00
3288;DHT22;3260;52.438;13.502;2022-11-20T16:48:52;1.50;1.00
3288;DHT22;3260;52.438;13.502;2022-11-20T16:51:22;1.50;1.00
3288;DHT22;3260;52.438;13.502;2022-11-20T16:53:51;1.40;1.00
3288;DHT22;3260;52.438;13.502;2022-11-20T16:56:22;1.40;1.00
3288;DHT22;3260;52.438;13.502;2022-11-20T16:58:55;1.40;1.00
3288;DHT22;3260;52.438;13.502;2022-11-20T17:01:25;1.40;1.00
3288;DHT22;3260;52.438;13.502;2022-11-20T17:03:56;1.30;1.00
3288;DHT22;3260;52.438;13.502;2022-11-20T17:06:27;1.30;1.00
3288;DHT22;3260;52.438;13.502;2022-11-20T17:08:57;1.20;1.00
3288;DHT22;3260;52.438;13.502;2022-11-20T17:11:26;1.20;1.00
3288;DHT22;3260;52.438;13.502;2022-11-20T17:13:57;1.20;1.00
3288;DHT22;3260;52.438;13.502;2022-11-20T17:16:26;1.10;1.00
3288;DHT22;3260;52.438;13.502;2022-11-20T17:18:55;1.10;1.00
3288;DHT22;3260;52.438;13.502;2022-11-20T17:21:29;1.00;1.00
3288;DHT22;3260;52.438;13.502;2022-11-20T17:23:59;1.00;1.00
3288;DHT22;3260;52.438;13.502;2022-11-20T17:26:29;1.00;1.00
3288;DHT22;3260;52.438;13.502;2022-11-20T17:28:59;1.00;1.00
3288;DHT22;3260;52.438;13.502;2022-11-20T17:31:31;1.00;1.00
3288;DHT22;3260;52.438;13.502;2022-11-20T17:34:01;0.90;1.00
3288;DHT22;3260;52.438;13.502;2022-11-20T17:36:30;1.00;1.00
3288;DHT22;3260;52.438;13.502;2022-11-20T17:38:59;1.00;1.00
3288;DHT22;3260;52.438;13.502;2022-11-20T17:41:28;1.00;1.00
3288;DHT22;3260;52.438;13.502;2022-11-20T17:43:59;1.00;1.00
3288;DHT22;3260;52.438;13.502;2022-11-20T17:46:29;1.10;1.00
3288;DHT22;3260;52.438;13.502;2022-11-20T17:49:00;1.20;1.00
3288;DHT22;3260;52.438;13.502;2022-11-20T17:51:31;1.20;1.00
3288;DHT22;3260;52.438;13.502;2022-11-20T17:54:03;1.30;1.00
3288;DHT22;3260;52.438;13.502;2022-11-20T17:56:34;1.40;1.00
3288;DHT22;3260;52.438;13.502;2022-11-20T17:59:22;1.40;1.00
3288;DHT22;3260;52.438;13.502;2022-11-20T18:01:50;1.50;1.00
3288;DHT22;3260;52.438;13.502;2022-11-20T18:04:20;1.60;1.00
3288;DHT22;3260;52.438;13.502;2022-11-20T18:06:49;1.60;1.00
3288;DHT22;3260;52.438;13.502;2022-11-20T18:09:17;1.70;1.00
3288;DHT22;3260;52.438;13.502;2022-11-20T18:11:45;1.70;1.00
3288;DHT22;3260;52.438;13.502;2022-11-20T18:14:15;1.70;1.00
3288;DHT22;3260;52.438;13.502;2022-11-20T18:16:57;1.60;1.00
3288;DHT22;3260;52.438;13.502;2022-11-20T18:19:28;1.60;1.00
3288;DHT22;3260;52.438;13.502;2022-11-20T18:21:58;1.50;1.00
3288;DHT22;3260;52.438;13.502;2022-11-20T18:24:27;1.50;1.00
3288;DHT22;3260;52.438;13.502;2022-11-20T18:26:57;1.40;1.00
3288;DHT22;3260;52.438;13.502;2022-11-20T18:29:26;1.30;1.00
3288;DHT22;3260;52.438;13.502;2022-11-20T18:31:58;1.20;1.00
3288;DHT22;3260;52.438;13.502;2022-11-20T18:34:27;1.10;1.00
3288;DHT22;3260;52.438;13.502;2022-11-20T18:36:56;1.00;1.00
3288;DHT22;3260;52.438;13.502;2022-11-20T18:39:24;1.00;1.00
3288;DHT22;3260;52.438;13.502;2022-11-20T18:41:53;0.80;1.00
3288;DHT22;3260;52.438;13.502;2022-11-20T18:44:38;0.80;1.00
3288;DHT22;3260;52.438;13.502;2022-11-20T18:47:23;0.70;1.00
3288;DHT22;3260;52.438;13.502;2022-11-20T18:49:54;0.70;1.00
3288;DHT22;3260;52.438;13.502;2022-11-20T18:52:25;0.60;1.00
3288;DHT22;3260;52.438;13.502;2022-11-20T18:54:55;0.60;1.00
3288;DHT22;3260;52.438;13.502;2022-11-20T18:57:25;0.50;1.00
3288;DHT22;3260;52.438;13.502;2022-11-20T18:59:55;0.50;1.00
3288;DHT22;3260;52.438;13.502;2022-11-20T19:02:47;0.50;1.00
3288;DHT22;3260;52.438;13.502;2022-11-20T19:05:15;0.40;1.00
3288;DHT22;3260;52.438;13.502;2022-11-20T19:07:44;0.40;1.00
3288;DHT22;3260;52.438;13.502;2022-11-20T19:10:12;0.40;1.00
3288;DHT22;3260;52.438;13.502;2022-11-20T19:12:41;0.40;1.00
3288;DHT22;3260;52.438;13.502;2022-11-20T19:15:09;0.30;1.00
3288;DHT22;3260;52.438;13.502;2022-11-20T19:17:38;0.30;1.00
3288;DHT22;3260;52.438;13.502;2022-11-20T19:20:08;0.30;1.00
3288;DHT22;3260;52.438;13.502;2022-11-20T19:22:38;0.30;1.00
3288;DHT22;3260;52.438;13.502;2022-11-20T19:25:07;0.30;1.00
3288;DHT22;3260;52.438;13.502;2022-11-20T19:27:35;0.30;1.00
3288;DHT22;3260;52.438;13.502;2022-11-20T19:30:04;0.20;1.00
3288;DHT22;3260;52.438;13.502;2022-11-20T19:32:33;0.20;1.00
3288;DHT22;3260;52.438;13.502;2022-11-20T19:35:02;0.10;1.00
3288;DHT22;3260;52.438;13.502;2022-11-20T19:37:33;0.10;1.00
3288;DHT22;3260;52.438;13.502;2022-11-20T19:40:02;0.20;1.00
3288;DHT22;3260;52.438;13.502;2022-11-20T19:42:31;0.20;1.00
3288;DHT22;3260;52.438;13.502;2022-11-20T19:44:59;0.20;1.00
3288;DHT22;3260;52.438;13.502;2022-11-20T19:47:27;0.30;1.00
3288;DHT22;3260;52.438;13.502;2022-11-20T19:50:16;0.30;1.00
3288;DHT22;3260;52.438;13.502;2022-11-20T19:52:45;0.40;1.00
3288;DHT22;3260;52.438;13.502;2022-11-20T19:55:14;0.50;1.00
3288;DHT22;3260;52.438;13.502;2022-11-20T19:57:42;0.50;1.00
3288;DHT22;3260;52.438;13.502;2022-11-20T20:00:11;0.60;1.00
3288;DHT22;3260;52.438;13.502;2022-11-20T20:02:52;0.60;1.00
3288;DHT22;3260;52.438;13.502;2022-11-20T20:05:21;0.50;1.00
3288;DHT22;3260;52.438;13.502;2022-11-20T20:07:51;0.50;1.00
3288;DHT22;3260;52.438;13.502;2022-11-20T20:10:19;0.50;1.00
3288;DHT22;3260;52.438;13.502;2022-11-20T20:12:47;0.40;1.00
3288;DHT22;3260;52.438;13.502;2022-11-20T20:15:16;0.40;1.00
3288;DHT22;3260;52.438;13.502;2022-11-20T20:17:44;0.40;1.00
3288;DHT22;3260;52.438;13.502;2022-11-20T20:20:12;0.30;1.00
3288;DHT22;3260;52.438;13.502;2022-11-20T20:22:41;0.30;1.00
3288;DHT22;3260;52.438;13.502;2022-11-20T20:25:11;0.20;1.00
3288;DHT22;3260;52.438;13.502;2022-11-20T20:27:40;0.20;1.00
3288;DHT22;3260;52.438;13.502;2022-11-20T20:30:08;0.10;1.00
3288;DHT22;3260;52.438;13.502;2022-11-20T20:32:38;0.00;1.00
3288;DHT22;3260;52.438;13.502;2022-11-20T20:35:07;0.00;1.00
3288;DHT22;3260;52.438;13.502;2022-11-20T20:37:35;-0.10;1.00
3288;DHT22;3260;52.438;13.502;2022-11-20T20:40:04;-0.20;1.00
3288;DHT22;3260;52.438;13.502;2022-11-20T20:42:42;-0.20;1.00
3288;DHT22;3260;52.438;13.502;2022-11-20T20:45:10;-0.20;1.00
3288;DHT22;3260;52.438;13.502;2022-11-20T20:47:39;-0.30;1.00
3288;DHT22;3260;52.438;13.502;2022-11-20T20:50:09;-0.30;1.00
3288;DHT22;3260;52.438;13.502;2022-11-20T20:52:38;-0.30;1.00
3288;DHT22;3260;52.438;13.502;2022-11-20T20:55:07;-0.40;1.00
3288;DHT22;3260;52.438;13.502;2022-11-20T20:57:36;-0.40;1.00
3288;DHT22;3260;52.438;13.502;2022-11-20T21:00:07;-0.40;1.00
3288;DHT22;3260;52.438;13.502;2022-11-20T21:02:36;-0.50;1.00
3288;DHT22;3260;52.438;13.502;2022-11-20T21:05:05;-0.50;1.00
3288;DHT22;3260;52.438;13.502;2022-11-20T21:07:34;-0.50;1.00
3288;DHT22;3260;52.438;13.502;2022-11-20T21:10:23;-0.60;1.00
3288;DHT22;3260;52.438;13.502;2022-11-20T21:12:51;-0.60;1.00
3288;DHT22;3260;52.438;13.502;2022-11-20T21:15:20;-0.70;1.00
3288;DHT22;3260;52.438;13.502;2022-11-20T21:17:49;-0.70;1.00
3288;DHT22;3260;52.438;13.502;2022-11-20T21:20:17;-0.70;1.00
3288;DHT22;3260;52.438;13.502;2022-11-20T21:23:07;-0.70;1.00
3288;DHT22;3260;52.438;13.502;2022-11-20T21:25:37;-0.70;1.00
3288;DHT22;3260;52.438;13.502;2022-11-20T21:28:06;-0.70;1.00
3288;DHT22;3260;52.438;13.502;2022-11-20T21:30:41;-0.70;1.00
3288;DHT22;3260;52.438;13.502;2022-11-20T21:33:09;-0.70;1.00
3288;DHT22;3260;52.438;13.502;2022-11-20T21:35:37;-0.70;1.00
3288;DHT22;3260;52.438;13.502;2022-11-20T21:38:07;-0.70;1.00
3288;DHT22;3260;52.438;13.502;2022-11-20T21:40:35;-0.70;1.00
3288;DHT22;3260;52.438;13.502;2022-11-20T21:43:03;-0.70;1.00
3288;DHT22;3260;52.438;13.502;2022-11-20T21:45:31;-0.80;1.00
3288;DHT22;3260;52.438;13.502;2022-11-20T21:48:01;-0.80;1.00
3288;DHT22;3260;52.438;13.502;2022-11-20T21:50:29;-0.90;1.00
3288;DHT22;3260;52.438;13.502;2022-11-20T21:52:57;-0.90;1.00
3288;DHT22;3260;52.438;13.502;2022-11-20T21:55:25;-0.90;1.00